createdAt,value
2022-09-01T00:01:31.054Z,100176.88
2022-09-01T00:04:03.757Z,100173.52
2022-09-01T00:06:33.538Z,100169.27
2022-09-01T00:09:06.139Z,100167.68
2022-09-01T00:11:35.875Z,100166.48
2022-09-01T00:14:06.575Z,100166.36
2022-09-01T00:16:45.335Z,100169.83
2022-09-01T00:19:16.411Z,100169.63
2022-09-01T00:21:45.558Z,100172.23
2022-09-01T00:24:16.341Z,100172.46
2022-09-01T00:26:45.561Z,100178.92
2022-09-01T00:29:14.369Z,100176.19
2022-09-01T00:31:43.365Z,100169.63
2022-09-01T00:34:12.614Z,100170.29
2022-09-01T00:36:41.326Z,100170.09
2022-09-01T00:39:10.348Z,100162.32
2022-09-01T00:41:44.291Z,100164.87
2022-09-01T00:44:16.103Z,100163.70
2022-09-01T00:46:50.986Z,100163.71
2022-09-01T00:49:31.611Z,100161.88
2022-09-01T00:52:07.991Z,100161.15
2022-09-01T00:54:40.033Z,100159.08
2022-09-01T00:57:08.477Z,100156.14
2022-09-01T00:59:43.422Z,100154.02
2022-09-01T01:02:12.552Z,100155.08
2022-09-01T01:04:43.107Z,100161.48
2022-09-01T01:07:13.035Z,100165.21
2022-09-01T01:09:43.767Z,100155.94
2022-09-01T01:12:17.649Z,100155.31
2022-09-01T01:14:49.533Z,100158.16
2022-09-01T01:17:18.151Z,100156.41
2022-09-01T01:20:06.453Z,100155.16
2022-09-01T01:23:02.593Z,100151.83
2022-09-01T01:25:34.517Z,100154.91
2022-09-01T01:28:22.286Z,100154.09
2022-09-01T01:30:58.668Z,100153.64
2022-09-01T01:33:30.737Z,100154.12
2022-09-01T01:36:01.380Z,100152.06
2022-09-01T01:38:30.691Z,100152.63
2022-09-01T01:41:00.794Z,100155.36
2022-09-01T01:43:30.023Z,100151.90
2022-09-01T01:46:01.933Z,100159.10
2022-09-01T01:48:38.859Z,100154.40
2022-09-01T01:51:08.518Z,100150.64
2022-09-01T01:53:37.445Z,100153.23
2022-09-01T01:56:08.428Z,100150.88
2022-09-01T01:58:39.960Z,100146.78
2022-09-01T02:01:12.577Z,100147.66
2022-09-01T02:03:41.462Z,100148.31
2022-09-01T02:06:11.499Z,100149.48
2022-09-01T02:08:41.212Z,100150.77
2022-09-01T02:11:12.552Z,100150.09
2022-09-01T02:13:41.155Z,100147.80
2022-09-01T02:16:12.297Z,100145.04
2022-09-01T02:18:47.451Z,100148.70
2022-09-01T02:21:19.604Z,100148.55
2022-09-01T02:23:59.782Z,100150.66
2022-09-01T02:26:31.520Z,100149.99
2022-09-01T02:29:04.087Z,100153.23
2022-09-01T02:31:35.173Z,100153.25
2022-09-01T02:34:03.991Z,100152.10
2022-09-01T02:36:34.511Z,100146.89
2022-09-01T02:39:03.412Z,100149.57
2022-09-01T02:41:33.822Z,100150.62
2022-09-01T02:44:03.423Z,100147.44
2022-09-01T02:46:33.989Z,100154.56
2022-09-01T02:49:04.873Z,100153.95
2022-09-01T02:51:33.942Z,100156.07
2022-09-01T02:54:03.380Z,100152.75
2022-09-01T02:56:33.105Z,100154.85
2022-09-01T02:59:02.501Z,100154.55
2022-09-01T03:01:33.075Z,100152.33
2022-09-01T03:04:05.069Z,100152.41
2022-09-01T03:06:35.849Z,100148.65
2022-09-01T03:09:06.995Z,100143.13
2022-09-01T03:11:38.554Z,100143.08
2022-09-01T03:14:08.058Z,100139.45
2022-09-01T03:16:38.599Z,100145.08
2022-09-01T03:19:10.493Z,100143.30
2022-09-01T03:21:41.413Z,100144.12
2022-09-01T03:24:14.503Z,100144.89
2022-09-01T03:26:44.099Z,100149.77
2022-09-01T03:29:13.156Z,100151.76
2022-09-01T03:31:42.567Z,100150.27
2022-09-01T03:34:11.971Z,100154.11
2022-09-01T03:36:49.576Z,100150.56
2022-09-01T03:39:19.864Z,100150.60
2022-09-01T03:41:48.624Z,100151.44
2022-09-01T03:44:17.222Z,100150.20
2022-09-01T03:46:46.636Z,100155.14
2022-09-01T03:49:24.419Z,100155.37
2022-09-01T03:51:53.397Z,100153.23
2022-09-01T03:54:24.285Z,100151.82
2022-09-01T03:56:54.631Z,100151.11
2022-09-01T03:59:25.072Z,100151.46
2022-09-01T04:01:54.043Z,100157.42
2022-09-01T04:04:23.288Z,100156.77
2022-09-01T04:06:51.922Z,100160.77
2022-09-01T04:09:20.498Z,100161.80
2022-09-01T04:11:52.459Z,100159.83
2022-09-01T04:14:21.546Z,100159.67
2022-09-01T04:17:09.720Z,100159.26
2022-09-01T04:19:38.899Z,100159.44
2022-09-01T04:22:07.710Z,100160.86
2022-09-01T04:24:45.235Z,100156.95
2022-09-01T04:27:17.386Z,100160.12
2022-09-01T04:29:46.349Z,100160.19
2022-09-01T04:32:15.231Z,100163.27
2022-09-01T04:34:46.672Z,100162.08
2022-09-01T04:37:20.597Z,100167.54
2022-09-01T04:39:56.465Z,100166.66
2022-09-01T04:42:28.546Z,100165.96
2022-09-01T04:44:59.357Z,100170.58
2022-09-01T04:47:29.747Z,100170.79
2022-09-01T04:50:13.124Z,100171.64
2022-09-01T04:52:44.180Z,100167.34
2022-09-01T04:55:21.519Z,100165.63
2022-09-01T04:57:50.451Z,100169.58
2022-09-01T05:00:24.554Z,100171.66
2022-09-01T05:03:03.801Z,100173.27
2022-09-01T05:05:50.731Z,100176.72
2022-09-01T05:08:23.938Z,100174.00
2022-09-01T05:10:56.078Z,100172.95
2022-09-01T05:13:47.437Z,100174.31
2022-09-01T05:16:24.601Z,100177.59
2022-09-01T05:18:57.338Z,100179.55
2022-09-01T05:21:29.374Z,100180.27
2022-09-01T05:24:00.757Z,100177.27
2022-09-01T05:26:31.199Z,100175.17
2022-09-01T05:29:03.482Z,100176.80
2022-09-01T05:31:37.095Z,100176.52
2022-09-01T05:34:09.125Z,100174.96
2022-09-01T05:36:43.178Z,100178.77
2022-09-01T05:39:11.932Z,100180.08
2022-09-01T05:41:41.200Z,100177.51
2022-09-01T05:44:14.992Z,100178.73
2022-09-01T05:46:44.347Z,100179.07
2022-09-01T05:49:16.370Z,100177.67
2022-09-01T05:51:50.382Z,100175.98
2022-09-01T05:54:24.773Z,100172.89
2022-09-01T05:56:55.056Z,100177.06
2022-09-01T05:59:30.905Z,100180.05
2022-09-01T06:02:02.620Z,100178.08
2022-09-01T06:04:32.537Z,100176.26
2022-09-01T06:07:11.749Z,100176.02
2022-09-01T06:09:47.722Z,100176.42
2022-09-01T06:12:21.099Z,100178.09
2022-09-01T06:14:52.386Z,100179.66
2022-09-01T06:17:24.320Z,100180.13
2022-09-01T06:19:52.877Z,100179.65
2022-09-01T06:22:23.408Z,100181.77
2022-09-01T06:24:57.929Z,100180.27
2022-09-01T06:27:30.168Z,100186.05
2022-09-01T06:29:59.245Z,100183.92
2022-09-01T06:32:28.565Z,100184.21
2022-09-01T06:34:59.831Z,100187.33
2022-09-01T06:37:29.830Z,100190.65
2022-09-01T06:40:00.372Z,100194.97
2022-09-01T06:42:29.124Z,100200.42
2022-09-01T06:45:00.834Z,100200.14
2022-09-01T06:47:29.643Z,100200.75
2022-09-01T06:49:58.707Z,100203.50
2022-09-01T06:52:28.214Z,100204.39
2022-09-01T06:54:57.727Z,100206.38
2022-09-01T07:00:18.859Z,100209.40
2022-09-01T07:02:53.088Z,100212.68
2022-09-01T07:06:00.888Z,100214.09
2022-09-01T07:14:27.541Z,100212.98
2022-09-01T07:19:48.929Z,100217.52
2022-09-01T07:25:12.131Z,100216.20
2022-09-01T07:27:52.352Z,100213.34
2022-09-01T07:30:24.985Z,100215.65
2022-09-01T07:32:54.923Z,100216.48
2022-09-01T07:35:25.028Z,100218.20
2022-09-01T07:42:56.296Z,100218.23
2022-09-01T07:43:50.762Z,100219.89
2022-09-01T07:46:38.046Z,100219.08
2022-09-01T07:51:59.793Z,100220.63
2022-09-01T07:54:29.698Z,100222.63
2022-09-01T07:56:59.073Z,100224.23
2022-09-01T07:59:28.888Z,100223.00
2022-09-01T08:02:05.447Z,100217.92
2022-09-01T08:04:34.337Z,100223.70
2022-09-01T08:07:02.984Z,100223.27
2022-09-01T08:09:37.212Z,100227.27
2022-09-01T08:12:08.764Z,100229.44
2022-09-01T08:14:43.841Z,100226.71
2022-09-01T08:20:07.670Z,100224.09
2022-09-01T08:23:00.540Z,100225.89
2022-09-01T08:25:35.275Z,100225.92
2022-09-01T08:28:05.225Z,100226.34
2022-09-01T08:30:35.803Z,100229.26
2022-09-01T08:33:12.430Z,100227.48
2022-09-01T08:35:48.117Z,100228.22
2022-09-01T08:38:17.698Z,100228.19
2022-09-01T08:40:56.406Z,100232.15
2022-09-01T08:43:38.827Z,100231.45
2022-09-01T08:46:13.890Z,100232.66
2022-09-01T08:51:51.965Z,100229.18
2022-09-01T08:54:29.846Z,100229.71
2022-09-01T08:57:05.887Z,100235.31
2022-09-01T08:59:53.578Z,100231.20
2022-09-01T09:02:45.854Z,100229.11
2022-09-01T09:05:29.759Z,100229.11
2022-09-01T09:08:16.034Z,100227.96
2022-09-01T09:10:55.774Z,100230.17
2022-09-01T09:13:36.065Z,100226.21
2022-09-01T09:16:09.805Z,100223.45
2022-09-01T09:18:54.665Z,100220.23
2022-09-01T09:21:30.059Z,100214.80
2022-09-01T09:24:06.752Z,100214.49
2022-09-01T09:26:42.738Z,100212.31
2022-09-01T09:29:11.642Z,100210.27
2022-09-01T09:31:49.611Z,100211.80
2022-09-01T09:34:32.071Z,100207.66
2022-09-01T09:37:17.092Z,100208.08
2022-09-01T09:39:56.885Z,100203.99
2022-09-01T09:42:35.124Z,100205.61
2022-09-01T09:45:16.095Z,100203.29
2022-09-01T09:47:46.311Z,100203.95
2022-09-01T09:50:23.286Z,100204.14
2022-09-01T09:52:55.114Z,100204.77
2022-09-01T09:55:27.023Z,100205.48
2022-09-01T09:57:58.856Z,100207.30
2022-09-01T10:00:29.793Z,100203.73
2022-09-01T10:03:07.777Z,100203.84
2022-09-01T10:05:43.568Z,100196.08
2022-09-01T10:08:15.937Z,100199.27
2022-09-01T10:10:56.382Z,100192.70
2022-09-01T10:13:28.971Z,100191.44
2022-09-01T10:15:59.825Z,100186.58
2022-09-01T10:18:35.074Z,100190.73
2022-09-01T10:21:08.403Z,100188.17
2022-09-01T10:23:38.742Z,100195.79
2022-09-01T10:26:13.655Z,100195.05
2022-09-01T10:28:51.014Z,100194.31
2022-09-01T10:31:21.398Z,100192.54
2022-09-01T10:33:50.840Z,100194.58
2022-09-01T10:36:24.633Z,100195.83
2022-09-01T10:38:59.972Z,100188.52
2022-09-01T10:41:59.478Z,100188.19
2022-09-01T10:44:33.458Z,100194.35
2022-09-01T10:47:13.427Z,100189.78
2022-09-01T10:49:59.175Z,100181.80
2022-09-01T10:53:01.494Z,100185.75
2022-09-01T10:55:33.859Z,100187.52
2022-09-01T11:01:15.644Z,100177.94
2022-09-01T11:03:56.688Z,100178.24
2022-09-01T11:09:45.498Z,100186.23
2022-09-01T11:12:38.598Z,100184.91
2022-09-01T11:15:36.891Z,100182.67
2022-09-01T11:18:11.572Z,100178.77
2022-09-01T11:20:45.506Z,100178.82
2022-09-01T11:23:23.648Z,100179.10
2022-09-01T11:28:46.027Z,100184.84
2022-09-01T11:31:22.200Z,100183.77
2022-09-01T11:33:57.758Z,100179.19
2022-09-01T11:36:31.208Z,100171.02
2022-09-01T11:39:07.261Z,100176.91
2022-09-01T11:41:54.503Z,100175.45
2022-09-01T11:44:27.756Z,100183.63
2022-09-01T11:47:02.537Z,100179.67
2022-09-01T11:49:34.646Z,100176.53
2022-09-01T11:52:05.059Z,100170.57
2022-09-01T11:54:41.370Z,100168.83
2022-09-01T11:57:22.529Z,100170.89
2022-09-01T11:59:51.453Z,100168.84
2022-09-01T12:02:24.442Z,100167.52
2022-09-01T12:04:55.632Z,100167.71
2022-09-01T12:07:30.029Z,100163.72
2022-09-01T12:09:58.741Z,100159.91
2022-09-01T12:12:31.211Z,100164.16
2022-09-01T12:15:07.945Z,100164.04
2022-09-01T12:17:36.890Z,100162.70
2022-09-01T12:20:29.487Z,100163.70
2022-09-01T12:23:00.159Z,100157.08
2022-09-01T12:25:31.576Z,100153.38
2022-09-01T12:28:01.735Z,100155.76
2022-09-01T12:30:34.757Z,100155.86
2022-09-01T12:36:19.339Z,100145.45
2022-09-01T12:38:48.301Z,100144.31
2022-09-01T12:41:34.300Z,100147.84
2022-09-01T12:44:30.004Z,100146.66
2022-09-01T12:47:01.667Z,100142.73
2022-09-01T12:49:47.915Z,100147.94
2022-09-01T12:52:25.237Z,100145.02
2022-09-01T12:55:46.970Z,100144.60
2022-09-01T12:58:04.622Z,100143.29
2022-09-01T13:00:35.178Z,100143.65
2022-09-01T13:03:13.544Z,100143.34
2022-09-01T13:05:43.695Z,100147.09
2022-09-01T13:08:13.902Z,100139.95
2022-09-01T13:10:45.048Z,100140.33
2022-09-01T13:13:15.229Z,100150.10
2022-09-01T13:15:47.469Z,100147.08
2022-09-01T13:18:16.770Z,100145.81
2022-09-01T13:20:45.547Z,100145.89
2022-09-01T13:23:14.992Z,100147.80
2022-09-01T13:25:43.935Z,100146.96
2022-09-01T13:28:13.586Z,100143.98
2022-09-01T13:30:44.681Z,100143.84
2022-09-01T13:33:20.902Z,100142.27
2022-09-01T13:35:51.819Z,100142.34
2022-09-01T13:38:20.843Z,100138.34
2022-09-01T13:40:51.039Z,100134.29
2022-09-01T13:43:22.340Z,100134.25
2022-09-01T13:45:51.625Z,100140.81
2022-09-01T13:48:21.763Z,100144.70
2022-09-01T13:51:22.334Z,100144.85
2022-09-01T13:53:41.247Z,100147.77
2022-09-01T13:56:09.792Z,100145.37
2022-09-01T13:58:38.410Z,100143.85
2022-09-01T14:01:07.400Z,100137.29
2022-09-01T14:03:37.526Z,100138.02
2022-09-01T14:06:07.799Z,100134.27
2022-09-01T14:08:36.503Z,100132.91
2022-09-01T14:11:05.210Z,100132.41
2022-09-01T14:13:34.923Z,100128.61
2022-09-01T14:16:11.207Z,100137.30
2022-09-01T14:18:40.316Z,100131.77
2022-09-01T14:21:12.435Z,100137.21
2022-09-01T14:23:40.946Z,100137.27
2022-09-01T14:26:11.327Z,100143.59
2022-09-01T14:28:44.959Z,100137.50
2022-09-01T14:31:15.672Z,100138.44
2022-09-01T14:33:44.660Z,100141.84
2022-09-01T14:36:19.463Z,100140.79
2022-09-01T14:38:48.874Z,100137.11
2022-09-01T14:41:21.273Z,100134.33
2022-09-01T14:43:50.060Z,100132.88
2022-09-01T14:46:20.361Z,100128.55
2022-09-01T14:48:50.118Z,100125.45
2022-09-01T14:51:23.665Z,100124.39
2022-09-01T14:53:53.697Z,100122.15
2022-09-01T14:56:23.117Z,100120.98
2022-09-01T14:58:58.193Z,100120.11
2022-09-01T15:01:34.647Z,100120.81
2022-09-01T15:04:04.326Z,100119.16
2022-09-01T15:06:33.344Z,100113.59
2022-09-01T15:09:02.842Z,100119.69
2022-09-01T15:11:31.452Z,100114.77
2022-09-01T15:14:00.171Z,100115.41
2022-09-01T15:16:28.852Z,100118.20
2022-09-01T15:18:57.456Z,100114.73
2022-09-01T15:21:28.100Z,100116.02
2022-09-01T15:23:56.826Z,100122.41
2022-09-01T15:26:26.516Z,100128.48
2022-09-01T15:28:56.754Z,100126.21
2022-09-01T15:31:32.562Z,100124.38
2022-09-01T15:34:04.015Z,100124.33
2022-09-01T15:36:39.320Z,100124.03
2022-09-01T15:39:08.795Z,100125.27
2022-09-01T15:41:38.703Z,100128.60
2022-09-01T15:44:08.499Z,100124.67
2022-09-01T15:46:39.968Z,100122.29
2022-09-01T15:49:10.178Z,100120.14
2022-09-01T15:51:40.495Z,100121.27
2022-09-01T15:54:11.389Z,100119.09
2022-09-01T15:56:40.704Z,100115.64
2022-09-01T15:59:10.632Z,100113.92
2022-09-01T16:01:41.768Z,100114.60
2022-09-01T16:04:18.138Z,100114.36
2022-09-01T16:06:50.363Z,100116.26
2022-09-01T16:09:20.648Z,100115.98
2022-09-01T16:11:49.354Z,100119.80
2022-09-01T16:14:20.096Z,100122.17
2022-09-01T16:16:57.757Z,100125.05
2022-09-01T16:19:37.552Z,100125.77
2022-09-01T16:22:13.267Z,100124.17
2022-09-01T16:24:44.613Z,100127.43
2022-09-01T16:27:16.766Z,100123.95
2022-09-01T16:29:49.065Z,100128.43
2022-09-01T16:32:20.855Z,100125.23
2022-09-01T16:34:51.192Z,100129.00
2022-09-01T16:37:34.508Z,100126.43
2022-09-01T16:40:17.033Z,100126.98
2022-09-01T16:42:57.875Z,100127.53
2022-09-01T16:45:42.871Z,100124.55
2022-09-01T16:48:22.762Z,100125.98
2022-09-01T16:51:00.765Z,100123.90
2022-09-01T16:53:44.394Z,100126.66
2022-09-01T16:56:21.458Z,100128.38
2022-09-01T16:58:59.321Z,100132.02
2022-09-01T17:01:42.365Z,100131.44
2022-09-01T17:04:26.754Z,100134.80
2022-09-01T17:07:02.353Z,100131.57
2022-09-01T17:09:41.244Z,100132.78
2022-09-01T17:12:27.833Z,100134.77
2022-09-01T17:14:59.091Z,100134.79
2022-09-01T17:17:37.752Z,100137.52
2022-09-01T17:20:12.427Z,100142.08
2022-09-01T17:22:46.131Z,100146.11
2022-09-01T17:25:28.875Z,100148.64
2022-09-01T17:28:07.994Z,100145.58
2022-09-01T17:30:46.713Z,100147.83
2022-09-01T17:33:33.146Z,100152.31
2022-09-01T17:36:20.747Z,100151.77
2022-09-01T17:39:09.539Z,100152.55
2022-09-01T17:41:57.252Z,100152.59
2022-09-01T17:44:43.510Z,100159.54
2022-09-01T17:47:24.201Z,100160.70
2022-09-01T17:50:07.543Z,100162.77
2022-09-01T17:52:52.655Z,100165.71
2022-09-01T17:55:47.557Z,100169.56
2022-09-01T17:58:57.987Z,100167.86
2022-09-01T18:01:49.125Z,100177.00
2022-09-01T18:05:00.191Z,100177.95
2022-09-01T18:08:03.418Z,100181.71
2022-09-01T18:10:47.092Z,100182.33
2022-09-01T18:13:51.857Z,100190.30
2022-09-01T18:16:18.249Z,100191.61
2022-09-01T18:18:50.929Z,100192.79
2022-09-01T18:21:26.073Z,100196.56
2022-09-01T18:24:15.551Z,100196.79
2022-09-01T18:26:52.078Z,100201.80
2022-09-01T18:29:28.384Z,100205.98
2022-09-01T18:32:24.669Z,100207.96
2022-09-01T18:35:11.258Z,100212.34
2022-09-01T18:37:54.453Z,100211.69
2022-09-01T18:40:36.575Z,100212.86
2022-09-01T18:43:21.403Z,100211.69
2022-09-01T18:46:00.850Z,100217.85
2022-09-01T18:49:01.079Z,100215.71
2022-09-01T18:51:48.175Z,100213.09
2022-09-01T18:54:22.023Z,100216.81
2022-09-01T18:56:59.979Z,100220.76
2022-09-01T19:00:08.856Z,100222.91
2022-09-01T19:03:04.449Z,100224.10
2022-09-01T19:06:05.505Z,100222.42
2022-09-01T19:08:47.706Z,100227.27
2022-09-01T19:11:26.839Z,100228.73
2022-09-01T19:14:05.903Z,100228.62
2022-09-01T19:16:48.847Z,100230.91
2022-09-01T19:19:29.095Z,100232.52
2022-09-01T19:21:58.434Z,100236.12
2022-09-01T19:24:33.620Z,100232.97
2022-09-01T19:27:10.797Z,100236.88
2022-09-01T19:29:47.000Z,100235.96
2022-09-01T19:32:19.527Z,100239.45
2022-09-01T19:34:53.390Z,100237.94
2022-09-01T19:37:23.493Z,100238.93
2022-09-01T19:39:54.411Z,100234.48
2022-09-01T19:42:31.548Z,100239.52
2022-09-01T19:45:08.955Z,100238.38
2022-09-01T19:47:45.216Z,100242.28
2022-09-01T19:50:20.540Z,100248.96
2022-09-01T19:52:56.012Z,100249.29
2022-09-01T19:55:31.335Z,100248.71
2022-09-01T19:58:05.340Z,100252.67
2022-09-01T20:00:51.391Z,100253.90
2022-09-01T20:03:26.648Z,100249.96
2022-09-01T20:05:59.717Z,100250.70
2022-09-01T20:08:34.122Z,100252.46
2022-09-01T20:11:08.094Z,100254.05
2022-09-01T20:13:53.521Z,100251.75
2022-09-01T20:16:29.907Z,100251.64
2022-09-01T20:19:03.290Z,100251.61
2022-09-01T20:21:39.416Z,100255.05
2022-09-01T20:24:16.593Z,100256.61
2022-09-01T20:26:49.339Z,100257.64
2022-09-01T20:29:26.048Z,100255.45
2022-09-01T20:31:58.448Z,100252.74
2022-09-01T20:34:34.704Z,100251.61
2022-09-01T20:37:08.674Z,100253.10
2022-09-01T20:40:00.463Z,100256.63
2022-09-01T20:42:38.795Z,100256.16
2022-09-01T20:45:12.465Z,100252.00
2022-09-01T20:47:45.017Z,100254.80
2022-09-01T20:50:14.611Z,100259.88
2022-09-01T20:53:02.061Z,100255.31
2022-09-01T20:55:37.399Z,100257.46
2022-09-01T20:58:21.602Z,100262.29
2022-09-01T21:00:58.188Z,100260.61
2022-09-01T21:03:37.762Z,100261.90
2022-09-01T21:06:15.766Z,100266.42
2022-09-01T21:08:49.020Z,100267.40
2022-09-01T21:11:33.799Z,100267.89
2022-09-01T21:14:15.480Z,100265.71
2022-09-01T21:16:55.993Z,100263.92
2022-09-01T21:19:31.852Z,100265.08
2022-09-01T21:22:06.788Z,100262.20
2022-09-01T21:24:35.875Z,100260.63
2022-09-01T21:27:10.644Z,100259.86
2022-09-01T21:29:55.220Z,100262.69
2022-09-01T21:32:25.594Z,100262.96
2022-09-01T21:34:55.704Z,100261.13
2022-09-01T21:37:25.887Z,100261.09
2022-09-01T21:39:55.609Z,100265.08
2022-09-01T21:42:33.114Z,100270.66
2022-09-01T21:45:04.503Z,100267.52
2022-09-01T21:47:33.791Z,100267.91
2022-09-01T21:50:02.483Z,100266.36
2022-09-01T21:52:31.157Z,100262.65
2022-09-01T21:54:59.918Z,100265.61
2022-09-01T21:57:28.671Z,100262.08
2022-09-01T21:59:57.484Z,100265.50
2022-09-01T22:02:28.331Z,100263.98
2022-09-01T22:04:57.457Z,100263.59
2022-09-01T22:07:26.107Z,100262.47
2022-09-01T22:09:57.116Z,100260.83
2022-09-01T22:12:25.970Z,100264.10
2022-09-01T22:14:54.924Z,100261.34
2022-09-01T22:17:23.843Z,100266.06
2022-09-01T22:19:52.851Z,100266.73
2022-09-01T22:22:21.673Z,100266.73
2022-09-01T22:24:50.208Z,100263.23
2022-09-01T22:27:18.877Z,100264.20
2022-09-01T22:29:47.619Z,100262.98
2022-09-01T22:32:16.307Z,100260.23
2022-09-01T22:34:45.202Z,100260.99
2022-09-01T22:37:13.857Z,100258.98
2022-09-01T22:39:42.539Z,100258.31
2022-09-01T22:42:11.080Z,100261.09
2022-09-01T22:44:39.912Z,100263.88
2022-09-01T22:47:08.724Z,100261.73
2022-09-01T22:49:37.520Z,100258.15
2022-09-01T22:52:06.276Z,100261.69
2022-09-01T22:54:35.215Z,100259.69
2022-09-01T22:57:04.723Z,100259.38
2022-09-01T22:59:53.013Z,100258.53
2022-09-01T23:02:22.868Z,100255.20
2022-09-01T23:04:52.211Z,100250.88
2022-09-01T23:07:20.825Z,100249.52
2022-09-01T23:09:49.603Z,100243.15
2022-09-01T23:12:18.311Z,100247.48
2022-09-01T23:14:46.872Z,100248.27
2022-09-01T23:17:15.439Z,100246.73
2022-09-01T23:19:44.063Z,100248.45
2022-09-01T23:22:12.966Z,100247.70
2022-09-01T23:24:41.466Z,100246.05
2022-09-01T23:27:10.268Z,100245.05
2022-09-01T23:29:39.789Z,100249.08
2022-09-01T23:32:08.410Z,100243.75
2022-09-01T23:34:38.176Z,100243.76
2022-09-01T23:37:06.879Z,100244.38
2022-09-01T23:39:35.812Z,100242.77
2022-09-01T23:42:05.317Z,100244.45
2022-09-01T23:44:33.923Z,100248.48
2022-09-01T23:47:02.995Z,100248.45
2022-09-01T23:49:31.660Z,100243.23
2022-09-01T23:52:00.213Z,100245.98
2022-09-01T23:54:28.892Z,100247.23
2022-09-01T23:56:57.785Z,100244.02
2022-09-01T23:59:27.961Z,100246.06
